createdAt,value
2022-12-03T00:02:52.592Z,50.80
2022-12-03T00:06:14.200Z,49.90
2022-12-03T00:09:19.071Z,47.70
2022-12-03T00:15:22.465Z,44.60
2022-12-03T00:18:24.164Z,49.80
2022-12-03T00:21:25.849Z,47.90
2022-12-03T00:24:27.580Z,52.60
2022-12-03T00:27:29.285Z,49.50
2022-12-03T00:30:31.089Z,56.70
2022-12-03T00:36:34.476Z,51.40
2022-12-03T00:42:37.908Z,52.90
2022-12-03T00:48:41.212Z,52.20
2022-12-03T00:51:42.904Z,49.40
2022-12-03T00:57:46.566Z,42.50
2022-12-03T01:00:48.320Z,50.70
2022-12-03T01:06:51.888Z,50.60
2022-12-03T01:12:55.561Z,53.40
2022-12-03T01:18:59.152Z,50.70
2022-12-03T01:22:00.955Z,58.60
2022-12-03T01:28:04.404Z,54.10
2022-12-03T01:31:24.980Z,56.20
2022-12-03T01:34:26.871Z,55.20
2022-12-03T01:40:30.493Z,51.10
2022-12-03T01:43:32.209Z,55.20
2022-12-03T01:49:42.085Z,53.50
2022-12-03T01:52:44.395Z,50.70
2022-12-03T01:55:48.826Z,53.10
2022-12-03T01:58:50.912Z,56.80
2022-12-03T02:01:52.596Z,55.70
2022-12-03T02:07:57.327Z,49.20
2022-12-03T02:11:04.528Z,55.80
2022-12-03T02:14:12.169Z,59.00
2022-12-03T02:17:14.049Z,53.90
2022-12-03T02:20:15.831Z,56.60
2022-12-03T02:26:23.108Z,59.70
2022-12-03T02:29:25.930Z,61.30
2022-12-03T02:32:27.579Z,59.70
2022-12-03T02:35:32.815Z,55.80
2022-12-03T02:38:35.139Z,59.50
2022-12-03T02:42:12.345Z,60.30
2022-12-03T02:45:32.723Z,53.90
2022-12-03T02:48:38.921Z,57.60
2022-12-03T02:51:40.701Z,57.60
2022-12-03T02:54:42.644Z,58.30
2022-12-03T02:57:46.376Z,57.70
2022-12-03T03:00:49.497Z,55.80
2022-12-03T03:03:52.060Z,60.80
2022-12-03T03:06:53.733Z,59.60
2022-12-03T03:09:55.599Z,57.60
2022-12-03T03:15:59.467Z,58.40
2022-12-03T03:19:02.237Z,62.90
2022-12-03T03:22:04.005Z,61.60
2022-12-03T03:31:11.630Z,61.80
2022-12-03T03:34:14.327Z,62.10
2022-12-03T03:37:16.123Z,62.30
2022-12-03T03:43:21.228Z,57.20
2022-12-03T03:46:23.306Z,64.50
2022-12-03T03:49:25.244Z,63.30
2022-12-03T03:55:28.641Z,58.50
2022-12-03T04:01:32.394Z,64.80
2022-12-03T04:04:37.001Z,59.60
2022-12-03T04:07:38.891Z,65.50
2022-12-03T04:10:59.275Z,65.10
2022-12-03T04:14:00.992Z,64.00
2022-12-03T04:20:05.230Z,62.60
2022-12-03T04:23:06.834Z,63.50
2022-12-03T04:26:27.619Z,67.50
2022-12-03T04:29:29.458Z,67.30
2022-12-03T04:35:51.494Z,67.50
2022-12-03T04:38:53.394Z,67.30
2022-12-03T04:44:58.518Z,60.50
2022-12-03T04:48:00.199Z,62.80
2022-12-03T04:54:03.782Z,62.60
2022-12-03T04:57:06.369Z,63.70
2022-12-03T05:00:08.558Z,64.80
2022-12-03T05:03:10.268Z,64.90
2022-12-03T05:06:11.908Z,65.20
2022-12-03T05:09:14.133Z,73.50
2022-12-03T05:12:15.768Z,63.80
2022-12-03T05:15:17.790Z,64.40
2022-12-03T05:18:19.453Z,64.80
2022-12-03T05:21:21.129Z,65.30
2022-12-03T05:27:24.549Z,66.50
2022-12-03T05:33:28.052Z,71.00
2022-12-03T05:36:29.771Z,61.00
2022-12-03T05:42:52.201Z,67.20
2022-12-03T05:45:54.017Z,70.70
2022-12-03T05:48:55.964Z,71.70
2022-12-03T05:51:58.887Z,67.60
2022-12-03T05:55:01.017Z,70.00
2022-12-03T05:58:02.923Z,80.90
2022-12-03T06:01:04.708Z,76.10
2022-12-03T06:07:12.488Z,70.70
2022-12-03T06:10:18.395Z,64.50
2022-12-03T06:13:20.230Z,61.50
2022-12-03T06:16:22.144Z,64.00
2022-12-03T06:19:23.839Z,63.40
2022-12-03T06:22:25.553Z,67.40
2022-12-03T06:25:27.275Z,66.50
2022-12-03T06:28:29.013Z,63.10
2022-12-03T06:31:30.668Z,67.40
2022-12-03T06:34:32.594Z,69.10
2022-12-03T06:40:38.342Z,54.10
2022-12-03T06:43:40.085Z,50.90
2022-12-03T06:49:43.724Z,54.10
2022-12-03T06:52:45.587Z,54.10
2022-12-03T06:58:48.878Z,50.20
2022-12-03T07:04:52.259Z,46.40
2022-12-03T07:07:55.611Z,50.90
2022-12-03T07:10:57.443Z,50.00
2022-12-03T07:14:05.079Z,47.60
2022-12-03T07:17:07.777Z,51.20
2022-12-03T07:20:10.027Z,55.00
2022-12-03T07:23:11.621Z,50.60
2022-12-03T07:26:13.502Z,56.40
2022-12-03T07:29:15.274Z,54.60
2022-12-03T07:35:18.597Z,50.20
2022-12-03T07:38:20.554Z,49.20
2022-12-03T07:44:23.871Z,50.00
2022-12-03T07:47:26.325Z,50.10
2022-12-03T07:50:28.477Z,53.70
2022-12-03T07:53:30.179Z,48.70
2022-12-03T07:59:33.448Z,47.40
2022-12-03T08:02:35.140Z,47.90
2022-12-03T08:05:36.889Z,45.90
2022-12-03T08:08:38.570Z,54.70
2022-12-03T08:11:40.444Z,54.90
2022-12-03T08:17:46.457Z,51.90
2022-12-03T08:20:50.718Z,54.30
2022-12-03T08:23:52.324Z,49.50
2022-12-03T08:26:53.979Z,49.90
2022-12-03T08:30:01.669Z,52.10
2022-12-03T08:33:31.137Z,51.90
2022-12-03T08:36:33.663Z,58.70
2022-12-03T08:39:37.958Z,53.20
2022-12-03T08:42:42.226Z,51.90
2022-12-03T08:45:44.702Z,48.20
2022-12-03T08:48:48.996Z,49.40
2022-12-03T08:51:56.155Z,48.90
2022-12-03T08:54:58.215Z,54.60
2022-12-03T09:01:10.965Z,45.40
2022-12-03T09:04:32.314Z,45.90
2022-12-03T09:07:34.102Z,49.10
2022-12-03T09:13:37.406Z,48.20
2022-12-03T09:16:39.398Z,48.20
2022-12-03T09:19:46.258Z,47.80
2022-12-03T09:22:48.327Z,43.00
2022-12-03T09:28:52.162Z,45.60
2022-12-03T09:31:53.895Z,46.50
2022-12-03T09:41:00.076Z,41.50
2022-12-03T09:44:04.675Z,44.30
2022-12-03T09:47:07.831Z,49.00
2022-12-03T09:50:23.683Z,46.40
2022-12-03T09:53:27.426Z,50.60
2022-12-03T09:56:29.500Z,49.50
2022-12-03T10:02:35.264Z,48.30
2022-12-03T10:08:38.509Z,43.20
2022-12-03T10:14:42.617Z,52.50
2022-12-03T10:17:46.886Z,49.10
2022-12-03T10:20:49.085Z,51.50
2022-12-03T10:24:31.345Z,45.60
2022-12-03T10:27:32.989Z,47.50
2022-12-03T10:30:34.644Z,48.20
2022-12-03T10:33:44.949Z,45.20
2022-12-03T10:36:46.689Z,48.40
2022-12-03T10:43:15.106Z,46.60
2022-12-03T10:46:22.131Z,56.00
2022-12-03T10:49:24.070Z,53.00
2022-12-03T10:55:34.599Z,51.80
2022-12-03T10:58:38.403Z,57.80
2022-12-03T11:01:40.265Z,55.10
2022-12-03T11:04:41.872Z,53.70
2022-12-03T11:07:44.341Z,59.20
2022-12-03T11:10:55.899Z,55.60
2022-12-03T11:14:02.670Z,55.60
2022-12-03T11:17:04.221Z,53.80
2022-12-03T11:20:24.371Z,55.50
2022-12-03T11:23:58.904Z,56.90
2022-12-03T11:27:00.453Z,53.20
2022-12-03T11:30:02.533Z,55.60
2022-12-03T11:33:04.336Z,54.90
2022-12-03T11:36:06.063Z,54.60
2022-12-03T11:39:08.614Z,57.10
2022-12-03T11:42:25.795Z,53.70
2022-12-03T11:45:35.788Z,56.10
2022-12-03T11:48:44.852Z,56.20
2022-12-03T11:51:46.822Z,54.80
2022-12-03T11:54:52.766Z,56.10
2022-12-03T11:57:59.834Z,52.50
2022-12-03T12:01:03.696Z,57.90
2022-12-03T12:04:06.449Z,58.60
2022-12-03T12:07:08.174Z,52.90
2022-12-03T12:13:27.810Z,49.20
2022-12-03T12:16:50.774Z,51.80
2022-12-03T12:20:11.586Z,56.60
2022-12-03T12:23:28.451Z,59.30
2022-12-03T12:26:30.095Z,58.90
2022-12-03T12:29:31.824Z,58.80
2022-12-03T12:32:38.930Z,54.20
2022-12-03T12:35:40.873Z,51.90
2022-12-03T12:38:42.548Z,49.00
2022-12-03T12:41:48.634Z,53.70
2022-12-03T12:44:50.382Z,53.30
2022-12-03T12:51:20.888Z,50.80
2022-12-03T12:54:22.584Z,50.40
2022-12-03T13:00:25.986Z,46.70
2022-12-03T13:03:31.483Z,49.00
2022-12-03T13:06:34.655Z,51.30
2022-12-03T13:09:36.303Z,49.90
2022-12-03T13:12:39.161Z,48.80
2022-12-03T13:15:48.884Z,51.50
2022-12-03T13:18:55.520Z,54.30
2022-12-03T13:22:00.739Z,52.90
2022-12-03T13:25:50.449Z,55.20
2022-12-03T13:28:49.371Z,55.80
2022-12-03T13:32:00.047Z,58.80
2022-12-03T13:35:31.591Z,52.90
2022-12-03T13:38:33.265Z,52.00
2022-12-03T13:41:53.775Z,55.60
2022-12-03T13:44:56.577Z,59.40
2022-12-03T13:48:01.177Z,59.10
2022-12-03T13:51:14.972Z,54.20
2022-12-03T13:54:21.543Z,54.40
2022-12-03T13:57:23.300Z,56.90
2022-12-03T14:00:25.089Z,54.70
2022-12-03T14:03:26.861Z,56.10
2022-12-03T14:06:28.505Z,56.60
2022-12-03T14:09:30.152Z,63.70
2022-12-03T14:12:33.985Z,59.90
2022-12-03T14:15:35.733Z,61.90
2022-12-03T14:18:37.486Z,55.30
2022-12-03T14:24:40.775Z,60.30
2022-12-03T14:27:42.521Z,58.90
2022-12-03T14:30:44.221Z,54.50
2022-12-03T14:33:45.870Z,54.10
2022-12-03T14:36:47.650Z,53.00
2022-12-03T14:42:51.169Z,50.40
2022-12-03T14:45:52.984Z,51.40
2022-12-03T14:51:56.380Z,46.70
2022-12-03T14:57:59.791Z,52.10
2022-12-03T15:01:01.518Z,50.90
2022-12-03T15:04:03.201Z,56.60
2022-12-03T15:07:05.034Z,55.90
2022-12-03T15:10:08.103Z,57.80
2022-12-03T15:13:09.836Z,67.70
2022-12-03T15:19:13.284Z,69.50
2022-12-03T15:22:14.944Z,93.00
2022-12-03T15:25:24.150Z,77.50
2022-12-03T15:28:26.023Z,67.50
2022-12-03T15:31:27.948Z,76.00
2022-12-03T15:37:31.221Z,68.70
2022-12-03T15:40:32.956Z,63.40
2022-12-03T15:43:34.585Z,61.40
2022-12-03T15:46:36.228Z,65.30
2022-12-03T15:49:37.950Z,65.40
2022-12-03T15:52:40.024Z,75.70
2022-12-03T15:55:41.698Z,93.70
2022-12-03T15:58:43.453Z,75.60
2022-12-03T16:04:46.700Z,72.50
2022-12-03T16:07:48.443Z,93.30
2022-12-03T16:13:51.783Z,117.00
2022-12-03T16:19:55.426Z,89.20
2022-12-03T16:22:57.359Z,88.80
2022-12-03T16:25:59.038Z,69.30
2022-12-03T16:29:00.738Z,78.80
2022-12-03T16:32:02.452Z,96.70
2022-12-03T16:38:06.438Z,84.90
2022-12-03T16:41:09.521Z,69.20
2022-12-03T16:44:30.629Z,70.50
2022-12-03T16:47:34.324Z,70.80
2022-12-03T16:50:37.743Z,76.60
2022-12-03T16:53:39.441Z,68.90
2022-12-03T16:56:41.017Z,67.40
2022-12-03T16:59:42.788Z,60.40
2022-12-03T17:02:44.514Z,58.60
2022-12-03T17:08:49.913Z,59.10
2022-12-03T17:11:52.124Z,58.80
2022-12-03T17:14:53.779Z,67.80
2022-12-03T17:17:55.548Z,87.70
2022-12-03T17:23:58.867Z,61.20
2022-12-03T17:27:00.548Z,62.60
2022-12-03T17:30:02.422Z,61.90
2022-12-03T17:33:04.185Z,66.30
2022-12-03T17:36:06.632Z,58.70
2022-12-03T17:39:08.312Z,59.90
2022-12-03T17:42:09.934Z,63.20
2022-12-03T17:45:12.570Z,59.10
2022-12-03T17:48:14.309Z,63.40
2022-12-03T17:54:17.624Z,62.30
2022-12-03T17:57:19.352Z,64.70
2022-12-03T18:00:21.223Z,60.70
2022-12-03T18:06:26.343Z,59.70
2022-12-03T18:09:27.910Z,55.20
2022-12-03T18:15:32.477Z,58.60
2022-12-03T18:18:34.181Z,55.50
2022-12-03T18:21:35.826Z,53.10
2022-12-03T18:24:37.582Z,55.10
2022-12-03T18:27:39.182Z,58.80
2022-12-03T18:30:40.874Z,56.10
2022-12-03T18:33:42.564Z,56.90
2022-12-03T18:36:44.231Z,54.10
2022-12-03T18:39:47.358Z,60.40
2022-12-03T18:42:49.071Z,60.20
2022-12-03T18:45:50.872Z,55.80
2022-12-03T18:51:58.932Z,53.00
2022-12-03T18:55:01.336Z,54.80
2022-12-03T19:01:05.637Z,55.70
2022-12-03T19:04:09.298Z,58.60
2022-12-03T19:07:12.402Z,54.90
2022-12-03T19:10:14.307Z,60.10
2022-12-03T19:13:16.026Z,59.40
2022-12-03T19:19:19.805Z,54.80
2022-12-03T19:22:22.320Z,61.50
2022-12-03T19:25:24.028Z,63.30
2022-12-03T19:28:26.381Z,62.70
2022-12-03T19:31:29.137Z,70.50
2022-12-03T19:34:30.884Z,63.70
2022-12-03T19:37:36.141Z,66.30
2022-12-03T19:40:37.869Z,66.50
2022-12-03T19:46:41.576Z,58.20
2022-12-03T19:49:43.220Z,59.90
2022-12-03T19:52:45.061Z,64.30
2022-12-03T19:58:48.488Z,63.00
2022-12-03T20:01:50.370Z,63.40
2022-12-03T20:04:52.340Z,65.30
2022-12-03T20:10:55.930Z,61.70
2022-12-03T20:17:00.553Z,62.40
2022-12-03T20:23:03.941Z,69.90
2022-12-03T20:26:10.757Z,65.80
2022-12-03T20:29:12.946Z,67.80
2022-12-03T20:32:14.670Z,70.60
2022-12-03T20:38:18.229Z,69.00
2022-12-03T20:41:19.960Z,74.90
2022-12-03T20:44:21.624Z,69.40
2022-12-03T20:47:23.489Z,75.00
2022-12-03T20:53:26.819Z,71.40
2022-12-03T20:56:34.445Z,71.40
2022-12-03T20:59:36.058Z,69.80
2022-12-03T21:05:40.016Z,66.50
2022-12-03T21:08:43.081Z,72.30
2022-12-03T21:11:45.467Z,69.70
2022-12-03T21:14:47.218Z,69.50
2022-12-03T21:17:50.145Z,63.60
2022-12-03T21:20:51.844Z,62.40
2022-12-03T21:23:53.823Z,57.70
2022-12-03T21:26:55.528Z,66.40
2022-12-03T21:29:57.523Z,60.50
2022-12-03T21:32:59.413Z,59.10
2022-12-03T21:39:03.240Z,54.20
2022-12-03T21:42:19.264Z,61.80
2022-12-03T21:48:28.812Z,53.00
2022-12-03T21:51:30.761Z,56.10
2022-12-03T21:54:32.413Z,51.90
2022-12-03T21:57:37.727Z,58.30
2022-12-03T22:00:39.466Z,63.60
2022-12-03T22:03:41.939Z,60.30
2022-12-03T22:06:43.553Z,53.00
2022-12-03T22:09:45.300Z,54.10
2022-12-03T22:15:48.898Z,51.40
2022-12-03T22:18:50.680Z,58.40
2022-12-03T22:24:54.122Z,49.80
2022-12-03T22:27:55.876Z,51.80
2022-12-03T22:31:01.713Z,54.60
2022-12-03T22:34:04.640Z,72.20
2022-12-03T22:40:08.485Z,48.50
2022-12-03T22:43:10.320Z,50.80
2022-12-03T22:49:14.978Z,58.70
2022-12-03T22:52:16.677Z,62.10
2022-12-03T22:58:20.102Z,49.70
2022-12-03T23:01:27.329Z,48.60
2022-12-03T23:04:28.995Z,48.20
2022-12-03T23:07:30.711Z,51.10
2022-12-03T23:13:36.317Z,52.00
2022-12-03T23:16:39.757Z,47.80
2022-12-03T23:19:41.704Z,51.20
2022-12-03T23:22:43.546Z,46.50
2022-12-03T23:28:47.507Z,49.30
2022-12-03T23:31:49.299Z,53.70
2022-12-03T23:34:53.516Z,51.90
2022-12-03T23:37:55.367Z,48.20
2022-12-03T23:43:58.658Z,46.10
2022-12-03T23:47:01.173Z,49.80
2022-12-03T23:50:04.447Z,49.30
2022-12-03T23:53:06.104Z,49.90
2022-12-03T23:56:10.110Z,57.50
2022-12-03T23:59:11.921Z,48.40
